Time;durP1;ratioP1;P1;durP2;ratioP2;P2;SDS_P1;SDS_P2;PMS_P1;PMS_P2;Temp;Humidity;BMP_temperature;BMP_pressure;BME280_temperature;BME280_humidity;BME280_pressure;Samples;Min_cycle;Max_cycle;Signal;HPM_P1;HPM_P2
2021/12/19 00:09:29;;;;;;;18.88;4.90;;;;;;;4.98;100.00;103843.81;5101001;28;20043;-78
2021/12/19 00:11:56;;;;;;;10.18;4.80;;;;;;;5.00;100.00;103846.56;5110647;28;20042;-77
2021/12/19 00:14:23;;;;;;;14.40;4.28;;;;;;;5.00;100.00;103831.81;5090368;28;20050;-77
2021/12/19 00:16:50;;;;;;;14.88;5.18;;;;;;;5.02;100.00;103830.25;5101057;28;20119;-77
2021/12/19 00:19:15;;;;;;;18.95;4.60;;;;;;;5.03;100.00;103824.28;5108483;28;20024;-79
2021/12/19 00:21:41;;;;;;;18.85;5.28;;;;;;;5.07;100.00;103822.81;5087148;28;20110;-77
2021/12/19 00:24:07;;;;;;;12.90;5.40;;;;;;;5.07;100.00;103828.97;5108275;28;20052;-77
2021/12/19 00:26:33;;;;;;;21.83;6.43;;;;;;;5.06;100.00;103827.13;5097639;28;20028;-78
2021/12/19 00:29:00;;;;;;;13.75;5.20;;;;;;;5.09;100.00;103820.34;5096434;28;20024;-77
2021/12/19 00:31:26;;;;;;;16.70;5.22;;;;;;;5.11;100.00;103824.00;5110743;28;20027;-77
2021/12/19 00:33:52;;;;;;;15.35;5.80;;;;;;;5.12;100.00;103820.63;5105270;28;20490;-78
2021/12/19 00:36:18;;;;;;;18.80;6.40;;;;;;;5.12;100.00;103823.25;5109722;28;20412;-77
2021/12/19 00:38:44;;;;;;;25.67;6.07;;;;;;;5.15;100.00;103819.19;5113130;28;20127;-77
2021/12/19 00:41:10;;;;;;;17.35;6.43;;;;;;;5.17;100.00;103812.41;5095300;28;20043;-77
2021/12/19 00:43:43;;;;;;;25.92;6.40;;;;;;;5.21;100.00;103811.00;5101592;28;20019;-78
2021/12/19 00:46:11;;;;;;;18.70;5.75;;;;;;;5.24;100.00;103813.84;5103880;28;20032;-79
2021/12/19 00:48:42;;;;;;;26.75;6.43;;;;;;;5.25;100.00;103802.63;5090837;28;20024;-77
2021/12/19 00:51:14;;;;;;;26.35;6.13;;;;;;;5.30;100.00;103800.41;5093402;28;20031;-78
2021/12/19 00:53:41;;;;;;;26.00;6.85;;;;;;;5.30;100.00;103798.69;5100960;28;20063;-77
2021/12/19 00:56:07;;;;;;;25.73;6.80;;;;;;;5.32;100.00;103797.16;5113303;28;20036;-78
2021/12/19 00:58:32;;;;;;;21.77;6.82;;;;;;;5.34;100.00;103798.19;5113460;28;20538;-79
2021/12/19 01:00:58;;;;;;;35.90;7.05;;;;;;;5.35;100.00;103794.78;5092961;28;20043;-77
2021/12/19 01:03:24;;;;;;;20.48;6.78;;;;;;;5.37;100.00;103795.84;5086343;28;20020;-77
2021/12/19 01:05:50;;;;;;;26.63;7.00;;;;;;;5.38;100.00;103792.44;5093236;28;20062;-79
2021/12/19 01:08:16;;;;;;;29.20;8.00;;;;;;;5.39;100.00;103791.66;5102195;28;20036;-77
2021/12/19 01:10:44;;;;;;;24.42;5.97;;;;;;;5.47;100.00;103787.09;5097197;28;20039;-77
2021/12/19 01:13:10;;;;;;;16.67;5.43;;;;;;;5.51;100.00;103785.69;5079332;28;20446;-78
2021/12/19 01:15:37;;;;;;;16.80;5.03;;;;;;;5.57;100.00;103783.56;5110015;28;20412;-77
2021/12/19 01:18:03;;;;;;;11.32;3.47;;;;;;;5.62;100.00;103779.66;5092296;28;20035;-78
2021/12/19 01:20:35;;;;;;;11.45;3.50;;;;;;;5.67;100.00;103788.78;5112016;28;20471;-78
2021/12/19 01:23:01;;;;;;;9.70;3.50;;;;;;;5.75;100.00;103786.81;5109199;28;20032;-78
2021/12/19 01:25:27;;;;;;;14.55;3.95;;;;;;;5.74;100.00;103780.69;5103400;28;20105;-78
2021/12/19 01:27:52;;;;;;;18.10;4.78;;;;;;;5.80;100.00;103779.38;5099434;28;20043;-79
2021/12/19 01:30:18;;;;;;;14.38;4.47;;;;;;;5.82;100.00;103780.41;5097569;28;20020;-79
2021/12/19 01:32:44;;;;;;;17.67;5.05;;;;;;;5.86;100.00;103774.63;5102377;28;20024;-79
2021/12/19 01:35:12;;;;;;;15.68;4.85;;;;;;;5.85;100.00;103778.06;5095033;28;20031;-79
2021/12/19 01:37:38;;;;;;;25.02;6.28;;;;;;;5.88;100.00;103775.69;5085982;28;20036;-79
2021/12/19 01:40:06;;;;;;;17.25;5.05;;;;;;;5.84;100.00;103769.28;5066732;28;20037;-79
2021/12/19 01:42:34;;;;;;;18.73;5.00;;;;;;;5.84;100.00;103771.00;5056771;28;20111;-79
2021/12/19 01:45:00;;;;;;;13.73;4.30;;;;;;;5.85;100.00;103762.38;5066338;28;20039;-79
2021/12/19 01:47:28;;;;;;;16.80;5.03;;;;;;;5.85;100.00;103762.38;5062569;28;20112;-78
2021/12/19 01:49:55;;;;;;;20.17;4.32;;;;;;;5.87;100.00;103761.72;5064152;28;20051;-79
2021/12/19 01:52:21;;;;;;;14.52;3.78;;;;;;;5.87;100.00;103756.50;5064740;28;20123;-79
2021/12/19 01:54:50;;;;;;;12.20;4.00;;;;;;;5.87;100.00;103763.41;5060598;28;20042;-78
2021/12/19 01:57:15;;;;;;;12.43;4.05;;;;;;;5.88;100.00;103766.13;5060555;28;20020;-79
2021/12/19 01:59:41;;;;;;;18.42;4.63;;;;;;;5.90;100.00;103761.97;5069986;28;20098;-79
2021/12/19 02:02:07;;;;;;;14.70;3.55;;;;;;;5.89;100.00;103762.75;5059922;28;20063;-79
2021/12/19 02:04:33;;;;;;;18.33;4.55;;;;;;;5.89;100.00;103754.91;5062933;28;20070;-79
2021/12/19 02:07:01;;;;;;;10.90;3.08;;;;;;;5.91;100.00;103757.66;5062088;28;20028;-79
2021/12/19 02:09:27;;;;;;;7.90;2.97;;;;;;;5.91;100.00;103752.41;5058674;28;20140;-79
2021/12/19 02:11:53;;;;;;;10.50;2.80;;;;;;;5.91;100.00;103757.66;5067154;28;20115;-79
2021/12/19 02:14:20;;;;;;;7.82;2.50;;;;;;;5.96;100.00;103752.81;5074917;28;20472;-79
2021/12/19 02:16:46;;;;;;;10.43;2.83;;;;;;;5.94;100.00;103755.31;5058327;28;20040;-78
2021/12/19 02:19:13;;;;;;;5.13;1.90;;;;;;;5.93;100.00;103753.47;5072383;28;20056;-78
2021/12/19 02:21:39;;;;;;;6.63;2.00;;;;;;;5.91;100.00;103747.19;5057741;28;20446;-78
2021/12/19 02:24:10;;;;;;;13.07;1.83;;;;;;;5.93;100.00;103740.41;5065043;28;20373;-78
2021/12/19 02:26:44;;;;;;;15.93;3.28;;;;;;;5.93;100.00;103737.78;5065250;28;20025;-79
2021/12/19 02:29:11;;;;;;;8.00;2.20;;;;;;;5.94;100.00;103736.06;5063196;28;20039;-79
2021/12/19 02:31:38;;;;;;;10.82;2.30;;;;;;;5.97;100.00;103734.63;5056886;28;20039;-79
2021/12/19 02:34:11;;;;;;;7.43;2.38;;;;;;;6.00;100.00;103734.00;5064754;28;20025;-79
2021/12/19 02:37:05;;;;;;;11.95;3.17;;;;;;;6.00;100.00;103737.53;5067988;28;20048;-79
2021/12/19 02:39:53;;;;;;;13.45;3.40;;;;;;;6.02;100.00;103730.75;5100658;28;20035;-79
2021/12/19 02:50:34;;;;;;;22.65;4.68;;;;;;;6.03;100.00;103716.88;5106979;28;20038;-79
2021/12/19 02:52:59;;;;;;;25.13;5.65;;;;;;;6.04;100.00;103723.94;5107345;28;20318;-79
2021/12/19 02:55:25;;;;;;;21.65;5.55;;;;;;;6.07;100.00;103713.72;5088679;28;20429;-79
2021/12/19 02:57:51;;;;;;;22.25;5.30;;;;;;;6.08;100.00;103710.31;5105733;28;20468;-78
2021/12/19 03:00:25;;;;;;;25.90;6.63;;;;;;;6.11;100.00;103703.53;5083226;28;20035;-79
2021/12/19 03:02:51;;;;;;;18.20;5.15;;;;;;;6.14;100.00;103703.75;5080539;28;20064;-79
2021/12/19 03:05:16;;;;;;;15.50;5.65;;;;;;;6.16;100.00;103702.16;5100699;28;20476;-79
2021/12/19 03:07:43;;;;;;;26.33;5.63;;;;;;;6.15;100.00;103693.44;5085609;28;20034;-78
2021/12/19 03:13:06;;;;;;;15.45;4.82;;;;;;;6.15;100.00;103689.91;5100554;28;20040;-78
2021/12/19 03:18:17;;;;;;;21.27;5.75;;;;;;;6.14;100.00;103673.28;5106465;28;20096;-78
2021/12/19 03:20:43;;;;;;;24.23;5.70;;;;;;;6.15;100.00;103666.38;5090612;28;20024;-77
2021/12/19 03:23:14;;;;;;;26.17;6.53;;;;;;;6.12;100.00;103673.94;5091809;28;20039;-78
2021/12/19 03:25:40;;;;;;;23.20;5.15;;;;;;;6.13;100.00;103660.09;5087643;28;20063;-79
2021/12/19 03:28:08;;;;;;;19.50;4.82;;;;;;;6.13;100.00;103658.41;5100220;28;20036;-78
2021/12/19 03:30:35;;;;;;;13.05;4.28;;;;;;;6.15;100.00;103658.53;5099407;28;20035;-78
2021/12/19 03:33:02;;;;;;;14.15;4.03;;;;;;;6.16;100.00;103650.81;5098806;28;20067;-78
2021/12/19 03:35:30;;;;;;;14.35;4.22;;;;;;;6.16;100.00;103650.81;5096252;28;20096;-78
2021/12/19 03:37:59;;;;;;;16.27;4.00;;;;;;;6.19;100.00;103639.69;5087187;28;20068;-78
2021/12/19 03:40:35;;;;;;;24.75;4.82;;;;;;;6.20;100.00;103638.88;5066092;28;20024;-78
2021/12/19 03:43:23;;;;;;;17.45;4.53;;;;;;;6.21;100.00;103636.41;5060969;28;20036;-78
2021/12/19 03:45:50;;;;;;;20.33;5.28;;;;;;;6.23;100.00;103632.19;5063554;28;20074;-78
2021/12/19 03:48:16;;;;;;;19.92;5.15;;;;;;;6.26;100.00;103634.16;5056636;28;20036;-78
2021/12/19 03:50:49;;;;;;;16.42;4.70;;;;;;;6.30;100.00;103635.31;5062453;28;20032;-78
2021/12/19 03:53:18;;;;;;;19.58;4.80;;;;;;;6.24;100.00;103635.75;5065970;28;20426;-78
2021/12/19 03:55:44;;;;;;;15.57;4.38;;;;;;;6.26;100.00;103636.75;5062311;28;20099;-78
2021/12/19 03:58:10;;;;;;;13.75;3.53;;;;;;;6.26;100.00;103630.63;5060250;28;20047;-78
2021/12/19 04:00:36;;;;;;;16.83;4.22;;;;;;;6.26;100.00;103628.91;5064184;28;20055;-78
2021/12/19 04:03:05;;;;;;;18.63;4.20;;;;;;;6.30;100.00;103627.47;5058327;28;20064;-78
2021/12/19 04:05:32;;;;;;;15.13;3.70;;;;;;;6.28;100.00;103624.75;5056748;28;20074;-78
2021/12/19 04:07:58;;;;;;;10.05;3.15;;;;;;;6.30;100.00;103623.13;5061451;28;20119;-78
2021/12/19 04:10:27;;;;;;;16.48;4.45;;;;;;;6.30;100.00;103617.00;5061701;28;20441;-78
2021/12/19 04:12:52;;;;;;;12.73;3.20;;;;;;;6.31;100.00;103608.34;5070200;28;20451;-78
2021/12/19 04:15:17;;;;;;;8.38;2.97;;;;;;;6.32;100.00;103610.19;5056233;28;20020;-78
2021/12/19 04:17:43;;;;;;;5.78;2.00;;;;;;;6.34;100.00;103601.66;5059444;28;20032;-78
2021/12/19 04:20:09;;;;;;;7.95;2.35;;;;;;;6.35;100.00;103602.59;5056510;28;20033;-78
2021/12/19 04:22:34;;;;;;;6.63;2.55;;;;;;;6.34;100.00;103593.81;5070332;28;20051;-78
2021/12/19 04:25:03;;;;;;;11.10;3.03;;;;;;;6.36;100.00;103597.47;5067057;28;20473;-78
2021/12/19 04:27:29;;;;;;;13.07;3.30;;;;;;;6.35;100.00;103594.75;5060949;28;20389;-78
2021/12/19 04:29:55;;;;;;;10.70;3.10;;;;;;;6.37;100.00;103598.38;5054811;28;20130;-78
2021/12/19 04:32:26;;;;;;;10.40;2.75;;;;;;;6.36;100.00;103594.88;5065175;28;20436;-78
2021/12/19 04:34:51;;;;;;;6.97;2.65;;;;;;;6.39;100.00;103596.81;5070563;28;20377;-78
2021/12/19 04:40:23;;;;;;;7.30;2.47;;;;;;;6.33;100.00;103581.53;5094130;28;20089;-78
2021/12/19 04:51:47;;;;;;;17.10;5.05;;;;;;;6.34;100.00;103572.91;5092300;28;20070;-77
2021/12/19 04:59:50;;;;;;;13.70;5.88;;;;;;;6.39;100.00;103573.28;5106289;28;20031;-78
2021/12/19 05:16:04;;;;;;;3.97;1.42;;;;;;;6.33;100.00;103584.16;5108253;28;20131;-78
2021/12/19 05:18:34;;;;;;;9.57;2.35;;;;;;;6.32;100.00;103584.97;5099370;28;20540;-78
2021/12/19 05:21:05;;;;;;;6.45;2.17;;;;;;;6.32;100.00;103589.25;5105408;28;20028;-78
2021/12/19 05:25:59;;;;;;;12.82;2.22;;;;;;;6.31;100.00;103583.13;5107435;28;20042;-78
2021/12/19 05:28:24;;;;;;;10.93;2.63;;;;;;;6.32;100.00;103584.03;5113597;28;20371;-78
2021/12/19 05:30:50;;;;;;;10.25;2.50;;;;;;;6.34;100.00;103591.19;5085788;28;20036;-78
2021/12/19 05:33:16;;;;;;;8.32;1.98;;;;;;;6.34;100.00;103591.19;5097014;28;20023;-78
2021/12/19 05:46:39;;;;;;;5.18;1.50;;;;;;;6.36;100.00;103576.56;5102635;28;20128;-78
2021/12/19 05:49:06;;;;;;;6.03;1.30;;;;;;;6.34;100.00;103572.91;5103159;28;20039;-78
2021/12/19 05:51:33;;;;;;;6.13;1.42;;;;;;;6.33;100.00;103578.91;5095064;28;20024;-78
2021/12/19 05:53:59;;;;;;;4.28;1.45;;;;;;;6.30;100.00;103568.22;5111851;28;20032;-78
2021/12/19 05:56:25;;;;;;;4.63;0.80;;;;;;;6.31;100.00;103567.44;5086749;28;20023;-78
2021/12/19 05:58:51;;;;;;;6.13;1.20;;;;;;;6.32;100.00;103569.28;5116342;28;20039;-78
2021/12/19 06:01:17;;;;;;;3.88;0.90;;;;;;;6.30;100.00;103565.59;5087044;28;20020;-78
2021/12/19 06:03:42;;;;;;;4.47;1.15;;;;;;;6.33;100.00;103557.09;5097684;28;20075;-78
2021/12/19 06:06:07;;;;;;;5.28;1.60;;;;;;;6.34;100.00;103551.06;5099609;28;20761;-78
2021/12/19 06:08:33;;;;;;;4.25;1.20;;;;;;;6.35;100.00;103553.81;5104341;28;20039;-78
2021/12/19 06:10:59;;;;;;;6.05;1.45;;;;;;;6.34;100.00;103557.22;5110636;28;20090;-78
2021/12/19 06:13:24;;;;;;;7.15;1.58;;;;;;;6.35;100.00;103559.03;5080155;28;20016;-78
2021/12/19 06:15:53;;;;;;;7.47;1.80;;;;;;;6.34;100.00;103551.97;5104666;28;20035;-79
2021/12/19 06:18:18;;;;;;;6.32;1.63;;;;;;;6.34;100.00;103553.69;5111196;28;20049;-78
2021/12/19 06:20:44;;;;;;;8.43;2.33;;;;;;;6.38;100.00;103542.69;5098966;28;20027;-78
2021/12/19 06:23:10;;;;;;;7.15;1.50;;;;;;;6.39;100.00;103545.41;5105425;28;20524;-78
2021/12/19 06:25:36;;;;;;;9.02;1.70;;;;;;;6.39;100.00;103550.63;5102751;28;20066;-78
2021/12/19 06:28:03;;;;;;;6.45;1.92;;;;;;;6.38;100.00;103548.81;5100598;28;20045;-78
2021/12/19 06:30:34;;;;;;;5.70;1.67;;;;;;;6.39;100.00;103550.63;5102375;28;20073;-78
2021/12/19 06:32:59;;;;;;;8.00;1.83;;;;;;;6.40;100.00;103541.06;5104064;28;20028;-78
2021/12/19 06:35:29;;;;;;;6.95;1.70;;;;;;;6.40;100.00;103542.00;5086204;28;20501;-78
2021/12/19 06:37:54;;;;;;;7.55;1.67;;;;;;;6.44;100.00;103542.22;5093288;28;20099;-79
2021/12/19 06:40:21;;;;;;;12.10;1.98;;;;;;;6.41;100.00;103533.34;5088201;28;20032;-78
2021/12/19 06:42:47;;;;;;;4.97;1.33;;;;;;;6.43;100.00;103528.25;5100515;28;20552;-77
2021/12/19 06:45:13;;;;;;;8.27;2.00;;;;;;;6.42;100.00;103526.44;5097315;28;20054;-78
2021/12/19 06:47:39;;;;;;;10.20;2.45;;;;;;;6.41;100.00;103528.09;5092477;28;20050;-78
2021/12/19 06:50:08;;;;;;;9.27;1.95;;;;;;;6.43;100.00;103535.16;5095857;28;20042;-78
2021/12/19 06:52:33;;;;;;;6.63;2.20;;;;;;;6.41;100.00;103528.09;5103763;28;20035;-77
2021/12/19 06:55:03;;;;;;;9.25;1.55;;;;;;;6.38;100.00;103525.28;5081262;28;20028;-78
2021/12/19 06:57:29;;;;;;;5.25;1.77;;;;;;;6.37;100.00;103519.91;5083169;28;20055;-78
2021/12/19 06:59:54;;;;;;;6.85;1.50;;;;;;;6.34;100.00;103523.22;5088813;28;20076;-78
2021/12/19 07:02:20;;;;;;;9.20;1.20;;;;;;;6.30;100.00;103517.63;5105948;28;20036;-78
2021/12/19 07:04:46;;;;;;;5.63;1.23;;;;;;;6.30;100.00;103520.25;5098862;28;20361;-78
2021/12/19 07:07:12;;;;;;;7.60;1.20;;;;;;;6.30;100.00;103517.63;5100534;28;20026;-78
2021/12/19 07:09:41;;;;;;;3.33;1.30;;;;;;;6.29;100.00;103516.72;5098422;28;20074;-78
2021/12/19 07:12:08;;;;;;;8.25;1.33;;;;;;;6.27;100.00;103513.09;5106405;28;20114;-78
2021/12/19 07:14:34;;;;;;;4.90;1.52;;;;;;;6.25;100.00;103514.66;5078633;28;20085;-78
2021/12/19 07:17:00;;;;;;;6.75;1.40;;;;;;;6.24;100.00;103510.25;5078087;28;20051;-78
2021/12/19 07:19:26;;;;;;;9.93;1.80;;;;;;;6.25;100.00;103501.56;5079379;28;20039;-78
2021/12/19 07:21:51;;;;;;;11.63;1.92;;;;;;;6.28;100.00;103513.97;5083247;28;20361;-78
2021/12/19 07:24:17;;;;;;;6.85;2.08;;;;;;;6.28;100.00;103509.69;5086332;28;20031;-78
2021/12/19 07:26:45;;;;;;;5.30;1.50;;;;;;;6.26;100.00;103511.25;5101516;28;20035;-78
2021/12/19 07:29:10;;;;;;;9.40;2.45;;;;;;;6.26;100.00;103508.63;5090890;28;20024;-78
2021/12/19 07:31:38;;;;;;;7.38;1.77;;;;;;;6.26;100.00;103506.03;5107256;28;20031;-79
2021/12/19 07:34:05;;;;;;;6.05;1.70;;;;;;;6.26;100.00;103506.03;5078134;28;20468;-78
2021/12/19 07:36:39;;;;;;;7.80;2.25;;;;;;;6.25;100.00;103504.19;5099251;28;20542;-78
2021/12/19 07:39:09;;;;;;;8.57;2.90;;;;;;;6.28;100.00;103504.44;5102541;28;20028;-79
2021/12/19 07:41:35;;;;;;;8.23;2.47;;;;;;;6.29;100.00;103511.47;5097429;28;20476;-77
2021/12/19 07:44:02;;;;;;;12.65;2.50;;;;;;;6.30;100.00;103508.06;5107876;28;20044;-78
2021/12/19 07:46:27;;;;;;;10.00;2.70;;;;;;;6.33;100.00;103502.19;5096892;28;20024;-78
2021/12/19 07:48:52;;;;;;;9.35;2.78;;;;;;;6.33;100.00;103504.78;5101797;28;20032;-78
2021/12/19 07:51:18;;;;;;;13.43;2.95;;;;;;;6.33;100.00;103504.78;5102622;28;20031;-78
2021/12/19 07:53:43;;;;;;;14.88;3.75;;;;;;;6.35;100.00;103505.84;5101049;28;20031;-78
2021/12/19 07:56:08;;;;;;;9.93;3.70;;;;;;;6.34;100.00;103504.91;5107571;28;20097;-77
2021/12/19 07:58:34;;;;;;;11.88;3.75;;;;;;;6.36;100.00;103508.56;5101954;28;20024;-77
2021/12/19 08:01:00;;;;;;;13.20;4.95;;;;;;;6.37;100.00;103507.75;5097648;28;20028;-77
2021/12/19 08:03:25;;;;;;;14.38;4.72;;;;;;;6.39;100.00;103507.91;5105076;28;20104;-78
2021/12/19 08:05:52;;;;;;;21.40;5.68;;;;;;;6.39;100.00;103498.31;5087130;28;20551;-77
2021/12/19 08:08:25;;;;;;;15.35;4.55;;;;;;;6.43;100.00;103501.16;5106088;28;20067;-76
2021/12/19 08:13:37;;;;;;;11.20;3.35;;;;;;;6.41;100.00;103499.34;5101532;28;20042;-78
2021/12/19 08:16:02;;;;;;;8.68;3.00;;;;;;;6.43;100.00;103495.94;5093243;28;20033;-77
2021/12/19 08:18:28;;;;;;;8.02;3.28;;;;;;;6.41;100.00;103496.72;5102234;28;20110;-77
2021/12/19 08:20:53;;;;;;;10.40;2.65;;;;;;;6.43;100.00;103493.31;5077538;28;20063;-77
2021/12/19 08:23:18;;;;;;;5.20;1.70;;;;;;;6.44;100.00;103492.53;5088997;28;20024;-77
2021/12/19 08:25:44;;;;;;;6.72;1.88;;;;;;;6.47;100.00;103488.47;5100657;28;20424;-77
2021/12/19 08:28:10;;;;;;;6.28;2.53;;;;;;;6.46;100.00;103483.09;5103064;28;20400;-78
2021/12/19 08:30:36;;;;;;;7.82;2.22;;;;;;;6.46;100.00;103478.78;5084648;28;20032;-79
2021/12/19 08:33:02;;;;;;;5.35;1.95;;;;;;;6.48;100.00;103487.63;5101898;28;20114;-79
2021/12/19 08:35:27;;;;;;;6.97;2.25;;;;;;;6.49;100.00;103483.34;5086610;28;20066;-77
2021/12/19 08:37:53;;;;;;;5.32;2.03;;;;;;;6.51;100.00;103484.34;5079446;28;20055;-71
2021/12/19 08:40:18;;;;;;;5.57;2.00;;;;;;;6.53;100.00;103485.41;5064689;28;20055;-74
2021/12/19 08:42:44;;;;;;;6.00;2.10;;;;;;;6.54;100.00;103479.38;5067570;28;20028;-74
2021/12/19 08:45:10;;;;;;;5.93;2.00;;;;;;;6.57;100.00;103476.97;5066308;28;20035;-72
2021/12/19 08:47:37;;;;;;;5.03;1.70;;;;;;;6.58;100.00;103479.72;5067377;28;20361;-73
2021/12/19 08:50:05;;;;;;;4.00;1.38;;;;;;;6.63;100.00;103476.53;5064874;28;20453;-73
2021/12/19 08:52:30;;;;;;;7.28;1.60;;;;;;;6.62;100.00;103470.41;5066811;28;20044;-74
2021/12/19 08:54:55;;;;;;;7.05;2.90;;;;;;;6.65;100.00;103468.00;5064033;28;20025;-73
2021/12/19 08:57:21;;;;;;;6.53;2.00;;;;;;;6.66;100.00;103477.69;5064569;28;20036;-73
2021/12/19 08:59:47;;;;;;;5.28;1.98;;;;;;;6.67;100.00;103474.25;5057037;28;20127;-73
2021/12/19 09:02:12;;;;;;;4.53;1.90;;;;;;;6.70;100.00;103471.88;5068301;28;20060;-73
2021/12/19 09:04:38;;;;;;;3.80;1.90;;;;;;;6.69;100.00;103467.44;5064691;28;20059;-73
2021/12/19 09:07:03;;;;;;;4.53;2.17;;;;;;;6.70;100.00;103464.03;5063718;28;20142;-78
2021/12/19 09:09:29;;;;;;;7.38;2.13;;;;;;;6.72;100.00;103467.66;5070191;28;20403;-77
2021/12/19 09:11:54;;;;;;;6.82;1.85;;;;;;;6.75;100.00;103469.59;5063196;28;20021;-77
2021/12/19 09:14:20;;;;;;;3.22;1.83;;;;;;;6.77;100.00;103469.69;5065219;28;20060;-77
2021/12/19 09:16:45;;;;;;;7.47;1.83;;;;;;;6.79;100.00;103470.75;5070743;28;20035;-78
2021/12/19 09:19:12;;;;;;;4.35;2.22;;;;;;;6.78;100.00;103476.75;5062592;28;20063;-77
2021/12/19 09:21:38;;;;;;;5.25;2.05;;;;;;;6.79;100.00;103474.25;5059656;28;20037;-78
2021/12/19 09:24:04;;;;;;;5.07;1.80;;;;;;;6.80;100.00;103469.97;5064047;28;20028;-77
2021/12/19 09:26:30;;;;;;;5.75;1.67;;;;;;;6.82;100.00;103470.97;5064949;28;20469;-78
2021/12/19 09:28:55;;;;;;;3.53;1.65;;;;;;;6.81;100.00;103463.91;5072044;28;20044;-79
2021/12/19 09:31:21;;;;;;;7.10;2.45;;;;;;;6.82;100.00;103468.34;5065638;28;20032;-77
2021/12/19 09:33:47;;;;;;;5.57;2.45;;;;;;;6.82;100.00;103470.97;5069771;28;20013;-78
2021/12/19 09:36:14;;;;;;;8.38;2.08;;;;;;;6.83;100.00;103464.94;5068766;28;20139;-78
2021/12/19 09:38:41;;;;;;;5.55;2.15;;;;;;;6.87;100.00;103467.88;5104407;28;20094;-78
2021/12/19 09:41:17;;;;;;;6.28;2.20;;;;;;;6.86;100.00;103462.53;5095138;28;20470;-78
2021/12/19 09:43:43;;;;;;;3.75;1.92;;;;;;;6.89;100.00;103462.75;5092133;28;20024;-77
2021/12/19 09:46:10;;;;;;;4.45;2.05;;;;;;;6.94;100.00;103476.22;5107714;28;20357;-77
2021/12/19 09:48:37;;;;;;;7.57;1.98;;;;;;;7.02;100.00;103464.59;5114366;28;20023;-78
2021/12/19 09:51:03;;;;;;;4.97;1.50;;;;;;;7.11;100.00;103464.34;5109989;28;20110;-77
2021/12/19 09:53:29;;;;;;;2.75;0.90;;;;;;;7.15;100.00;103463.75;5110924;28;20039;-79
2021/12/19 09:55:55;;;;;;;5.43;0.90;;;;;;;7.21;100.00;103465.13;5112913;28;20053;-77
2021/12/19 09:58:22;;;;;;;4.82;0.95;;;;;;;7.21;100.00;103459.00;5092385;28;20031;-78
2021/12/19 10:00:53;;;;;;;1.85;0.90;;;;;;;7.26;100.00;103457.63;5097284;28;20042;-77
2021/12/19 10:03:20;;;;;;;7.40;1.10;;;;;;;7.30;100.00;103463.97;5087698;28;20119;-77
2021/12/19 10:05:46;;;;;;;0.95;0.80;;;;;;;7.26;100.00;103458.50;5081465;28;20027;-78
2021/12/19 10:08:22;;;;;;;2.65;0.68;;;;;;;7.23;100.00;103466.16;5096095;28;20042;-77
2021/12/19 10:11:00;;;;;;;1.08;0.60;;;;;;;7.18;100.00;103458.78;5102010;28;20125;-77
2021/12/19 10:13:37;;;;;;;6.55;1.00;;;;;;;7.15;100.00;103448.97;5104388;28;20467;-77
2021/12/19 10:16:30;;;;;;;1.63;0.95;;;;;;;7.11;100.00;103446.94;5079665;28;20036;-77
2021/12/19 10:19:00;;;;;;;5.50;1.30;;;;;;;7.14;100.00;103446.25;5084154;28;20047;-77
2021/12/19 10:21:29;;;;;;;5.75;0.90;;;;;;;7.15;100.00;103437.56;5096511;28;20032;-77
2021/12/19 10:24:00;;;;;;;7.95;1.77;;;;;;;7.12;100.00;103435.63;5096361;28;20032;-78
2021/12/19 10:26:39;;;;;;;5.55;1.77;;;;;;;7.13;100.00;103444.44;5100303;28;20115;-78
2021/12/19 10:29:04;;;;;;;6.55;1.88;;;;;;;7.11;100.00;103435.53;5102035;28;20468;-78
2021/12/19 10:31:33;;;;;;;6.38;2.13;;;;;;;7.12;100.00;103437.38;5107881;28;20038;-78
2021/12/19 10:34:16;;;;;;;5.40;1.75;;;;;;;7.10;100.00;103424.16;5104804;28;20076;-78
2021/12/19 10:36:42;;;;;;;4.28;2.15;;;;;;;7.11;100.00;103432.91;5097065;28;20118;-78
2021/12/19 10:39:14;;;;;;;9.90;3.20;;;;;;;7.11;100.00;103433.84;5095222;28;20474;-79
2021/12/19 10:41:42;;;;;;;8.57;3.33;;;;;;;7.13;100.00;103423.47;5086571;28;20031;-79
2021/12/19 10:45:29;;;;;;;11.98;4.43;;;;;;;7.12;100.00;103422.56;5107064;28;20045;-79
2021/12/19 10:46:53;;;;;;;6.25;2.70;;;;;;;7.13;100.00;103424.38;5107733;28;20031;-79
2021/12/19 10:49:29;;;;;;;10.85;3.53;;;;;;;7.16;100.00;103414.16;5103174;28;20020;-79
2021/12/19 10:51:57;;;;;;;11.63;3.45;;;;;;;7.17;100.00;103415.06;5112556;27;20023;-79
2021/12/19 10:54:23;;;;;;;9.10;4.03;;;;;;;7.18;100.00;103406.41;5102499;27;20081;-78
2021/12/19 10:56:48;;;;;;;12.90;3.30;;;;;;;7.20;100.00;103402.16;5101780;28;20359;-73
2021/12/19 10:59:18;;;;;;;7.60;3.00;;;;;;;7.21;100.00;103396.13;5095070;28;20480;-77
2021/12/19 11:01:47;;;;;;;14.55;3.75;;;;;;;7.23;100.00;103391.91;5107564;28;20031;-78
2021/12/19 11:04:17;;;;;;;11.63;3.40;;;;;;;7.24;100.00;103388.50;5105988;28;20031;-78
2021/12/19 11:06:50;;;;;;;8.45;3.38;;;;;;;7.26;100.00;103389.53;5107985;28;20036;-78
2021/12/19 11:09:37;;;;;;;16.30;3.35;;;;;;;7.28;100.00;103387.00;5091623;28;20382;-77
2021/12/19 11:12:10;;;;;;;11.13;3.78;;;;;;;7.26;100.00;103379.94;5105743;28;20024;-77
2021/12/19 11:14:44;;;;;;;16.50;4.28;;;;;;;7.28;100.00;103382.66;5084206;28;20054;-78
2021/12/19 11:17:21;;;;;;;21.42;3.88;;;;;;;7.30;100.00;103381.09;5108339;28;20048;-77
2021/12/19 11:19:49;;;;;;;9.30;3.88;;;;;;;7.28;100.00;103372.19;5086267;28;20027;-78
2021/12/19 11:22:23;;;;;;;13.60;3.63;;;;;;;7.28;100.00;103373.91;5085538;28;20375;-78
2021/12/19 11:24:51;;;;;;;20.67;3.58;;;;;;;7.32;100.00;103368.09;5103672;28;20035;-76
2021/12/19 11:27:18;;;;;;;9.63;3.13;;;;;;;7.32;100.00;103361.13;5102242;28;20486;-76
2021/12/19 11:29:45;;;;;;;10.73;3.50;;;;;;;7.28;100.00;103353.84;5105644;28;20046;-79
2021/12/19 11:32:18;;;;;;;10.63;3.08;;;;;;;7.29;100.00;103349.56;5107506;28;20027;-78
2021/12/19 11:35:07;;;;;;;14.15;3.45;;;;;;;7.30;100.00;103348.72;5087720;28;20023;-79
2021/12/19 11:37:39;;;;;;;12.10;3.22;;;;;;;7.30;100.00;103352.28;5100756;27;20087;-78
2021/12/19 11:40:07;;;;;;;12.75;3.03;;;;;;;7.28;100.00;103348.63;5095200;28;20088;-78
2021/12/19 11:42:42;;;;;;;19.70;5.15;;;;;;;7.28;100.00;103343.38;5104198;27;20042;-77
2021/12/19 11:47:54;;;;;;;13.93;3.30;;;;;;;7.29;100.00;103331.22;5102696;28;20051;-79
2021/12/19 11:50:22;;;;;;;11.15;3.08;;;;;;;7.32;100.00;103327.09;5088479;28;20031;-79
2021/12/19 11:53:18;;;;;;;14.98;3.22;;;;;;;7.31;100.00;103324.38;5090356;28;20501;-79
2021/12/19 11:55:46;;;;;;;16.35;3.15;;;;;;;7.32;100.00;103321.84;5093134;28;20061;-79
2021/12/19 11:58:12;;;;;;;16.77;3.25;;;;;;;7.30;100.00;103323.47;5092505;28;20030;-79
2021/12/19 12:00:47;;;;;;;14.38;3.40;;;;;;;7.31;100.00;103325.28;5082926;28;20024;-75
2021/12/19 12:03:12;;;;;;;16.80;5.85;;;;;;;7.34;100.00;103322.88;5080890;28;20077;-79
2021/12/19 12:05:41;;;;;;;11.55;3.72;;;;;;;7.35;100.00;103319.47;5103437;28;20114;-77
2021/12/19 12:08:07;;;;;;;18.08;4.10;;;;;;;7.35;100.00;103316.84;5105903;28;20050;-77
2021/12/19 12:10:48;;;;;;;13.32;4.53;;;;;;;7.35;100.00;103322.09;5088815;28;20019;-78
2021/12/19 12:13:31;;;;;;;13.27;3.33;;;;;;;7.34;100.00;103322.88;5084573;28;20118;-78
2021/12/19 12:16:20;;;;;;;11.25;3.17;;;;;;;7.31;100.00;103313.88;5103684;28;20047;-77
2021/12/19 12:18:55;;;;;;;9.27;2.97;;;;;;;7.34;100.00;103309.78;5107204;28;20414;-78
2021/12/19 12:21:22;;;;;;;9.52;2.90;;;;;;;7.34;100.00;103308.84;5090905;28;20604;-78
2021/12/19 12:23:56;;;;;;;8.70;2.30;;;;;;;7.31;100.00;103306.97;5084781;28;20028;-79
2021/12/19 12:26:28;;;;;;;9.82;1.83;;;;;;;7.27;100.00;103307.53;5101826;28;20016;-78
2021/12/19 12:28:55;;;;;;;10.80;2.05;;;;;;;7.22;100.00;103303.69;5084945;28;20147;-77
2021/12/19 12:31:23;;;;;;;8.90;1.52;;;;;;;7.19;100.00;103306.06;5082176;28;20450;-76
2021/12/19 12:33:49;;;;;;;7.35;1.80;;;;;;;7.12;100.00;103314.31;5097219;28;20103;-77
2021/12/19 12:36:16;;;;;;;6.57;1.90;;;;;;;7.07;100.00;103314.88;5100230;28;20474;-79
2021/12/19 12:38:47;;;;;;;6.50;1.65;;;;;;;7.00;100.00;103307.41;5104939;28;20061;-78